Time,TemperatureF,DewpointF,PressureIn,WindDirection,WindDirectionDegrees,WindSpeedMPH,WindSpeedGustMPH,Humidity,HourlyPrecipIn,Conditions,Clouds,dailyrainin,SoftwareType,DateUTC
2013-03-07 00:00:00,33.5,31.7,30.05,NE,53,5.0,13.0,93,0.00,,---,0.00,VWS V14.01,2013-03-07 05:00:00,
2013-03-07 00:01:00,33.5,31.7,30.05,SE,135,2.0,13.0,93,0.00,,---,0.00,VWS V14.01,2013-03-07 05:01:00,
2013-03-07 00:03:00,33.5,31.7,30.05,North,355,7.0,13.0,93,0.00,,---,0.00,VWS V14.01,2013-03-07 05:03:00,
2013-03-07 00:05:00,33.3,31.5,30.05,NNE,30,6.0,11.0,93,0.01,,---,0.01,VWS V14.01,2013-03-07 05:05:00,
2013-03-07 00:08:00,33.5,31.7,30.05,North,5,6.0,12.0,93,0.00,,---,0.00,VWS V14.01,2013-03-07 05:08:00,
2013-03-07 00:10:00,33.2,31.1,30.04,NNE,30,0.0,8.0,92,0.01,,---,0.01,VWS V14.01,2013-03-07 05:10:00,
2013-03-07 00:13:00,33.5,31.7,30.05,North,5,0.0,10.0,93,0.00,,---,0.00,VWS V14.01,2013-03-07 05:13:00,
2013-03-07 00:15:00,33.2,31.1,30.04,NNE,28,2.0,12.0,92,0.01,,---,0.01,VWS V14.01,2013-03-07 05:15:00,
2013-03-07 00:18:00,33.5,31.7,30.05,NNE,16,6.0,12.0,93,0.00,,---,0.00,VWS V14.01,2013-03-07 05:18:00,
2013-03-07 00:20:00,33.2,31.1,30.04,NNE,18,6.0,12.0,92,0.01,,---,0.01,VWS V14.01,2013-03-07 05:20:00,
2013-03-07 00:23:00,33.5,31.7,30.05,NE,52,4.0,11.0,93,0.00,,---,0.00,VWS V14.01,2013-03-07 05:23:00,
2013-03-07 00:25:00,33.2,31.1,30.03,NNE,29,6.0,7.0,92,0.01,,---,0.01,VWS V14.01,2013-03-07 05:25:00,
2013-03-07 00:28:00,33.4,31.6,30.05,NNE,26,4.0,11.0,93,0.00,,---,0.00,VWS V14.01,2013-03-07 05:28:00,
2013-03-07 00:30:00,33.1,31.0,30.03,NNE,31,4.0,11.0,92,0.01,,---,0.01,VWS V14.01,2013-03-07 05:30:00,
2013-03-07 00:33:00,33.4,31.6,30.05,ENE,78,4.0,7.0,93,0.00,,---,0.00,VWS V14.01,2013-03-07 05:33:00,
2013-03-07 00:35:00,33.1,31.0,30.03,NNW,346,3.0,9.0,92,0.01,,---,0.01,VWS V14.01,2013-03-07 05:35:00,
2013-03-07 00:38:00,33.4,31.6,30.05,North,5,5.0,12.0,93,0.00,,---,0.00,VWS V14.01,2013-03-07 05:38:00,
2013-03-07 00:40:00,33.0,30.9,30.03,NE,43,1.0,7.0,92,0.01,,---,0.01,VWS V14.01,2013-03-07 05:40:00,
2013-03-07 00:43:00,33.3,31.2,30.06,NNE,15,3.0,12.0,92,0.00,,---,0.00,VWS V14.01,2013-03-07 05:43:00,
2013-03-07 00:45:00,33.0,30.9,30.02,North,355,3.0,7.0,92,0.01,,---,0.01,VWS V14.01,2013-03-07 05:45:00,
2013-03-07 00:48:00,33.3,31.2,30.05,NE,39,2.0,9.0,92,0.00,,---,0.00,VWS V14.01,2013-03-07 05:48:00,
2013-03-07 00:50:00,32.8,30.7,30.02,NNE,18,5.0,11.0,92,0.01,,---,0.01,VWS V14.01,2013-03-07 05:50:00,
2013-03-07 00:53:00,33.3,31.2,30.05,NNW,336,1.0,13.0,92,0.01,,---,0.01,VWS V14.01,2013-03-07 05:53:00,
2013-03-07 00:55:00,32.8,30.7,30.02,North,5,3.0,11.0,92,0.01,,---,0.01,VWS V14.01,2013-03-07 05:55:00,
2013-03-07 00:58:00,33.3,31.2,30.05,NE,45,2.0,12.0,92,0.01,,---,0.01,VWS V14.01,2013-03-07 05:58:00,
2013-03-07 01:00:00,32.7,30.6,30.02,NE,36,4.0,11.0,92,0.00,,---,0.01,VWS V14.01,2013-03-07 06:00:00,
2013-03-07 01:03:00,33.2,31.4,30.05,NE,34,4.0,6.0,93,0.01,,---,0.01,VWS V14.01,2013-03-07 06:03:00,
2013-03-07 01:05:00,32.6,30.5,30.02,NE,45,3.0,11.0,92,0.00,,---,0.01,VWS V14.01,2013-03-07 06:05:00,
2013-03-07 01:08:00,33.2,31.1,30.04,NNE,30,0.0,0.0,92,0.01,,---,0.01,VWS V14.01,2013-03-07 06:08:00,
2013-03-07 01:10:00,32.5,30.4,30.02,NNE,17,6.0,11.0,92,0.00,,---,0.01,VWS V14.01,2013-03-07 06:10:00,
2013-03-07 01:13:00,33.2,31.1,30.04,NE,52,4.0,5.0,92,0.01,,---,0.01,VWS V14.01,2013-03-07 06:13:00,
2013-03-07 01:15:00,32.5,30.4,30.01,NNE,32,4.0,9.0,92,0.00,,---,0.01,VWS V14.01,2013-03-07 06:15:00,
2013-03-07 01:18:00,33.2,31.1,30.04,NNW,340,3.0,6.0,92,0.01,,---,0.01,VWS V14.01,2013-03-07 06:18:00,
2013-03-07 01:20:00,32.5,30.4,30.01,NE,36,5.0,10.0,92,0.00,,---,0.01,VWS V14.01,2013-03-07 06:20:00,
2013-03-07 01:23:00,33.1,31.0,30.03,NE,43,10.0,11.0,92,0.01,,---,0.01,VWS V14.01,2013-03-07 06:23:00,
2013-03-07 01:25:00,32.4,30.3,30.02,NE,46,1.0,13.0,92,0.00,,---,0.01,VWS V14.01,2013-03-07 06:25:00,
2013-03-07 01:29:00,33.1,31.0,30.03,ENE,63,2.0,4.0,92,0.01,,---,0.01,VWS V14.01,2013-03-07 06:29:00,
2013-03-07 01:30:00,32.4,30.3,30.01,NE,51,4.0,14.0,92,0.00,,---,0.01,VWS V14.01,2013-03-07 06:30:00,
2013-03-07 01:34:00,33.1,31.0,30.03,NNW,345,2.0,4.0,92,0.01,,---,0.01,VWS V14.01,2013-03-07 06:34:00,
2013-03-07 01:35:00,32.3,30.2,30.01,North,360,5.0,14.0,92,0.00,,---,0.01,VWS V14.01,2013-03-07 06:35:00,
2013-03-07 01:39:00,33.0,30.9,30.03,North,355,3.0,4.0,92,0.01,,---,0.01,VWS V14.01,2013-03-07 06:39:00,
2013-03-07 01:40:00,32.3,30.2,30.01,NE,47,4.0,10.0,92,0.00,,---,0.01,VWS V14.01,2013-03-07 06:40:00,
2013-03-07 01:44:00,32.9,30.8,30.02,NNW,336,0.0,6.0,92,0.01,,---,0.01,VWS V14.01,2013-03-07 06:44:00,
2013-03-07 01:45:00,32.3,30.2,30.01,North,360,4.0,13.0,92,0.00,,---,0.01,VWS V14.01,2013-03-07 06:45:00,
2013-03-07 01:49:00,32.8,30.7,30.02,NNE,25,4.0,6.0,92,0.01,,---,0.01,VWS V14.01,2013-03-07 06:49:00,
2013-03-07 01:50:00,32.3,30.2,30.00,NE,50,9.0,12.0,92,0.00,,---,0.01,VWS V14.01,2013-03-07 06:50:00,
2013-03-07 01:54:00,32.7,30.6,30.02,NE,35,3.0,5.0,92,0.00,,---,0.01,VWS V14.01,2013-03-07 06:54:00,
2013-03-07 01:55:00,32.2,30.1,30.00,North,9,4.0,11.0,92,0.00,,---,0.01,VWS V14.01,2013-03-07 06:55:00,
2013-03-07 01:59:00,32.6,30.5,30.02,NE,51,7.0,7.0,92,0.00,,---,0.01,VWS V14.01,2013-03-07 06:59:00,
2013-03-07 02:00:00,32.2,30.1,30.00,North,360,4.0,7.0,92,0.00,,---,0.01,VWS V14.01,2013-03-07 07:00:00,
2013-03-07 02:04:00,32.6,30.5,30.02,NE,52,4.0,5.0,92,0.00,,---,0.01,VWS V14.01,2013-03-07 07:04:00,
2013-03-07 02:05:00,32.1,30.0,30.00,NW,318,3.0,12.0,92,0.00,,---,0.01,VWS V14.01,2013-03-07 07:05:00,
2013-03-07 02:09:00,32.6,30.5,30.01,NE,40,1.0,9.0,92,0.00,,---,0.01,VWS V14.01,2013-03-07 07:09:00,
2013-03-07 02:10:00,32.1,30.0,30.00,NNE,28,0.0,12.0,92,0.00,,---,0.01,VWS V14.01,2013-03-07 07:10:00,
2013-03-07 02:14:00,32.5,30.4,30.01,ENE,57,3.0,5.0,92,0.00,,---,0.01,VWS V14.01,2013-03-07 07:14:00,
2013-03-07 02:15:00,32.0,29.9,30.01,NE,40,5.0,12.0,92,0.00,,---,0.01,VWS V14.01,2013-03-07 07:15:00,
2013-03-07 02:19:00,32.5,30.4,30.01,North,10,6.0,13.0,92,0.00,,---,0.01,VWS V14.01,2013-03-07 07:19:00,
2013-03-07 02:20:00,32.0,29.9,30.00,ENE,66,1.0,9.0,92,0.00,,---,0.01,VWS V14.01,2013-03-07 07:20:00,
2013-03-07 02:24:00,32.4,30.3,30.01,NE,36,8.0,12.0,92,0.00,,---,0.01,VWS V14.01,2013-03-07 07:24:00,
2013-03-07 02:25:00,31.9,29.8,30.00,NNE,33,3.0,9.0,92,0.00,,---,0.01,VWS V14.01,2013-03-07 07:25:00,
2013-03-07 02:29:00,32.4,30.3,30.01,NNE,26,3.0,6.0,92,0.00,,---,0.01,VWS V14.01,2013-03-07 07:29:00,
2013-03-07 02:30:00,31.9,29.8,30.00,NNW,342,7.0,15.0,92,0.00,,---,0.01,VWS V14.01,2013-03-07 07:30:00,
2013-03-07 02:34:00,32.4,30.3,30.01,NNE,12,6.0,10.0,92,0.00,,---,0.01,VWS V14.01,2013-03-07 07:34:00,
2013-03-07 02:35:00,31.8,29.8,30.01,North,5,9.0,9.0,92,0.00,,---,0.01,VWS V14.01,2013-03-07 07:35:00,
2013-03-07 02:39:00,32.3,30.2,30.01,NNE,28,3.0,10.0,92,0.00,,---,0.01,VWS V14.01,2013-03-07 07:39:00,
2013-03-07 02:40:00,31.8,29.8,30.01,NE,40,3.0,13.0,92,0.00,,---,0.01,VWS V14.01,2013-03-07 07:40:00,
2013-03-07 02:45:00,31.7,29.6,30.01,NNW,342,1.0,10.0,92,0.00,,---,0.01,VWS V14.01,2013-03-07 07:45:00,
2013-03-07 02:46:00,32.3,30.2,30.01,NE,46,1.0,12.0,92,0.00,,---,0.01,VWS V14.01,2013-03-07 07:46:00,
2013-03-07 02:50:00,31.7,29.6,30.01,East,88,1.0,9.0,92,0.00,,---,0.01,VWS V14.01,2013-03-07 07:50:00,
2013-03-07 02:51:00,32.2,30.1,30.00,NNE,13,3.0,11.0,92,0.00,,---,0.01,VWS V14.01,2013-03-07 07:51:00,
2013-03-07 02:55:00,31.7,29.6,30.01,NNW,338,5.0,6.0,92,0.00,,---,0.01,VWS V14.01,2013-03-07 07:55:00,
2013-03-07 02:56:00,32.2,30.1,30.00,NE,36,3.0,7.0,92,0.00,,---,0.01,VWS V14.01,2013-03-07 07:56:00,
2013-03-07 03:00:00,31.6,29.5,30.01,NE,55,2.0,8.0,92,0.00,,---,0.01,VWS V14.01,2013-03-07 08:00:00,
2013-03-07 03:01:00,32.1,30.0,30.00,NNW,346,5.0,9.0,92,0.00,,---,0.01,VWS V14.01,2013-03-07 08:01:00,
2013-03-07 03:05:00,31.6,29.5,30.01,NE,42,2.0,11.0,92,0.00,,---,0.01,VWS V14.01,2013-03-07 08:05:00,
2013-03-07 03:06:00,32.1,30.0,30.00,NE,43,5.0,12.0,92,0.00,,---,0.01,VWS V14.01,2013-03-07 08:06:00,
2013-03-07 03:10:00,31.5,29.5,30.01,NE,44,0.0,12.0,92,0.00,,---,0.01,VWS V14.01,2013-03-07 08:10:00,
2013-03-07 03:11:00,32.1,30.0,30.00,North,355,3.0,12.0,92,0.00,,---,0.01,VWS V14.01,2013-03-07 08:11:00,
2013-03-07 03:15:00,31.4,29.4,30.01,NE,35,5.0,9.0,92,0.00,,---,0.01,VWS V14.01,2013-03-07 08:15:00,
2013-03-07 03:17:00,32.0,29.9,30.00,NE,45,1.0,9.0,92,0.00,,---,0.01,VWS V14.01,2013-03-07 08:17:00,
2013-03-07 03:20:00,31.4,29.4,30.01,North,9,2.0,12.0,92,0.00,,---,0.01,VWS V14.01,2013-03-07 08:20:00,
2013-03-07 03:22:00,32.0,29.9,30.00,NE,34,7.0,9.0,92,0.00,,---,0.01,VWS V14.01,2013-03-07 08:22:00,
2013-03-07 03:25:00,31.3,29.2,30.01,NE,50,4.0,7.0,92,0.00,,---,0.01,VWS V14.01,2013-03-07 08:25:00,
2013-03-07 03:27:00,31.9,29.8,30.00,NNE,19,12.0,15.0,92,0.00,,---,0.01,VWS V14.01,2013-03-07 08:27:00,
2013-03-07 03:30:00,31.2,29.4,30.01,North,11,4.0,11.0,93,0.00,,---,0.01,VWS V14.01,2013-03-07 08:30:00,
2013-03-07 03:32:00,31.8,29.8,30.01,NE,43,4.0,9.0,92,0.00,,---,0.01,VWS V14.01,2013-03-07 08:32:00,
2013-03-07 03:35:00,31.2,29.1,30.01,NNW,339,5.0,11.0,92,0.00,,---,0.01,VWS V14.01,2013-03-07 08:35:00,
2013-03-07 03:37:00,31.7,29.6,30.01,NNE,15,2.0,13.0,92,0.00,,---,0.01,VWS V14.01,2013-03-07 08:37:00,
2013-03-07 03:40:00,31.1,29.0,30.01,NE,46,2.0,14.0,92,0.00,,---,0.01,VWS V14.01,2013-03-07 08:40:00,
2013-03-07 03:42:00,31.7,29.6,30.01,NNW,341,3.0,10.0,92,0.00,,---,0.01,VWS V14.01,2013-03-07 08:42:00,
2013-03-07 03:45:00,31.1,29.0,30.01,NW,323,3.0,12.0,92,0.00,,---,0.01,VWS V14.01,2013-03-07 08:45:00,
2013-03-07 03:47:00,31.7,29.6,30.01,North,351,1.0,6.0,92,0.00,,---,0.01,VWS V14.01,2013-03-07 08:47:00,
2013-03-07 03:50:00,31.1,29.0,30.00,NW,317,5.0,9.0,92,0.00,,---,0.01,VWS V14.01,2013-03-07 08:50:00,
2013-03-07 03:53:00,31.7,29.6,30.01,North,350,5.0,6.0,92,0.00,,---,0.01,VWS V14.01,2013-03-07 08:53:00,
2013-03-07 03:55:00,31.1,29.0,30.00,North,355,5.0,10.0,92,0.00,,---,0.01,VWS V14.01,2013-03-07 08:55:00,
2013-03-07 03:58:00,31.6,29.5,30.01,NE,55,2.0,8.0,92,0.00,,---,0.01,VWS V14.01,2013-03-07 08:58:00,
2013-03-07 04:00:00,31.2,29.1,30.00,NE,50,7.0,14.0,92,0.00,,---,0.01,VWS V14.01,2013-03-07 09:00:00,
2013-03-07 04:03:00,31.6,29.5,30.01,NNW,343,2.0,4.0,92,0.00,,---,0.01,VWS V14.01,2013-03-07 09:03:00,
2013-03-07 04:05:00,31.2,28.9,30.00,NE,34,5.0,12.0,91,0.00,,---,0.01,VWS V14.01,2013-03-07 09:05:00,
2013-03-07 04:08:00,31.5,29.5,30.01,North,5,2.0,5.0,92,0.00,,---,0.01,VWS V14.01,2013-03-07 09:08:00,
2013-03-07 04:10:00,31.2,28.9,30.00,NE,46,3.0,9.0,91,0.00,,---,0.01,VWS V14.01,2013-03-07 09:10:00,
2013-03-07 04:14:00,31.4,29.4,30.01,NW,326,2.0,5.0,92,0.00,,---,0.01,VWS V14.01,2013-03-07 09:14:00,
2013-03-07 04:15:00,31.2,28.9,30.00,North,5,3.0,12.0,91,0.00,,---,0.01,VWS V14.01,2013-03-07 09:15:00,
2013-03-07 04:19:00,31.4,29.4,30.01,NNW,335,5.0,7.0,92,0.00,,---,0.01,VWS V14.01,2013-03-07 09:19:00,
2013-03-07 04:20:00,31.2,28.6,30.00,NW,306,4.0,13.0,90,0.00,,---,0.01,VWS V14.01,2013-03-07 09:20:00,
2013-03-07 04:24:00,31.3,29.2,30.01,NNE,16,2.0,7.0,92,0.00,,---,0.01,VWS V14.01,2013-03-07 09:24:00,
2013-03-07 04:25:00,31.2,28.6,30.00,ENE,74,2.0,11.0,90,0.00,,---,0.01,VWS V14.01,2013-03-07 09:25:00,
2013-03-07 04:29:00,31.2,29.4,30.01,NNW,336,6.0,6.0,93,0.00,,---,0.01,VWS V14.01,2013-03-07 09:29:00,
2013-03-07 04:30:00,31.3,28.7,30.00,North,9,3.0,15.0,90,0.00,,---,0.01,VWS V14.01,2013-03-07 09:30:00,
2013-03-07 04:35:00,31.2,29.1,30.01,NNW,345,0.0,9.0,92,0.00,,---,0.01,VWS V14.01,2013-03-07 09:35:00,
2013-03-07 04:40:00,31.1,29.0,30.01,NW,305,5.0,5.0,92,0.00,,---,0.01,VWS V14.01,2013-03-07 09:40:00,
2013-03-07 04:45:00,31.1,29.0,30.01,NE,37,4.0,8.0,92,0.00,,---,0.01,VWS V14.01,2013-03-07 09:45:00,
2013-03-07 04:50:00,31.1,29.0,30.00,NNW,345,2.0,10.0,92,0.00,,---,0.01,VWS V14.01,2013-03-07 09:50:00,
2013-03-07 04:55:00,31.1,29.0,30.00,ENE,57,0.0,6.0,92,0.00,,---,0.01,VWS V14.01,2013-03-07 09:55:00,
2013-03-07 05:00:00,31.4,28.3,30.01,NNW,336,5.0,12.0,88,0.00,,---,0.01,VWS V14.01,2013-03-07 10:00:00,
2013-03-07 05:01:00,31.2,29.1,30.00,North,360,3.0,11.0,92,0.00,,---,0.01,VWS V14.01,2013-03-07 10:01:00,
2013-03-07 05:05:00,31.4,28.3,30.01,North,355,12.0,12.0,88,0.00,,---,0.01,VWS V14.01,2013-03-07 10:05:00,
2013-03-07 05:06:00,31.2,28.9,30.00,North,5,3.0,9.0,91,0.00,,---,0.01,VWS V14.01,2013-03-07 10:06:00,
2013-03-07 05:10:00,31.4,28.3,30.01,NNW,340,5.0,14.0,88,0.00,,---,0.01,VWS V14.01,2013-03-07 10:10:00,
2013-03-07 05:11:00,31.2,28.9,30.00,North,360,7.0,12.0,91,0.00,,---,0.01,VWS V14.01,2013-03-07 10:11:00,
2013-03-07 05:15:00,31.4,28.0,30.01,NNE,13,10.0,18.0,87,0.00,,---,0.01,VWS V14.01,2013-03-07 10:15:00,
2013-03-07 05:16:00,31.2,28.9,30.00,NNW,332,5.0,13.0,91,0.00,,---,0.01,VWS V14.01,2013-03-07 10:16:00,
2013-03-07 05:20:00,31.5,28.1,30.01,North,5,2.0,13.0,87,0.00,,---,0.01,VWS V14.01,2013-03-07 10:20:00,
2013-03-07 05:21:00,31.2,28.6,30.00,NE,47,8.0,11.0,90,0.00,,---,0.01,VWS V14.01,2013-03-07 10:21:00,
2013-03-07 05:25:00,31.5,27.8,30.01,NE,55,7.0,10.0,86,0.00,,---,0.01,VWS V14.01,2013-03-07 10:25:00,
2013-03-07 05:26:00,31.2,28.6,30.00,NNW,341,6.0,15.0,90,0.00,,---,0.01,VWS V14.01,2013-03-07 10:26:00,
2013-03-07 05:30:00,31.5,27.5,30.01,NNE,23,1.0,10.0,85,0.00,,---,0.01,VWS V14.01,2013-03-07 10:30:00,
2013-03-07 05:31:00,31.3,28.4,30.00,NNE,15,4.0,12.0,89,0.00,,---,0.01,VWS V14.01,2013-03-07 10:31:00,
2013-03-07 05:35:00,31.6,27.6,30.01,North,350,4.0,11.0,85,0.00,,---,0.01,VWS V14.01,2013-03-07 10:35:00,
2013-03-07 05:36:00,31.3,28.4,30.01,North,9,5.0,15.0,89,0.00,,---,0.01,VWS V14.01,2013-03-07 10:36:00,
2013-03-07 05:40:00,31.6,27.6,30.02,East,101,10.0,16.0,85,0.00,,---,0.01,VWS V14.01,2013-03-07 10:40:00,
2013-03-07 05:41:00,31.4,28.5,30.01,NNW,333,4.0,11.0,89,0.00,,---,0.01,VWS V14.01,2013-03-07 10:41:00,
2013-03-07 05:45:00,31.7,27.4,30.02,NNE,24,2.0,15.0,84,0.00,,---,0.01,VWS V14.01,2013-03-07 10:45:00,
2013-03-07 05:47:00,31.4,28.3,30.01,NNE,29,9.0,12.0,88,0.00,,---,0.01,VWS V14.01,2013-03-07 10:47:00,
2013-03-07 05:50:00,31.7,27.4,30.03,NE,35,9.0,16.0,84,0.00,,---,0.01,VWS V14.01,2013-03-07 10:50:00,
2013-03-07 05:52:00,31.4,28.3,30.01,NNE,24,4.0,10.0,88,0.00,,---,0.01,VWS V14.01,2013-03-07 10:52:00,
2013-03-07 05:55:00,31.7,27.4,30.02,NNE,19,4.0,12.0,84,0.00,,---,0.01,VWS V14.01,2013-03-07 10:55:00,
2013-03-07 05:57:00,31.4,28.3,30.01,NNE,31,4.0,12.0,88,0.00,,---,0.01,VWS V14.01,2013-03-07 10:57:00,
2013-03-07 06:00:00,31.8,27.2,30.02,NW,323,4.0,12.0,83,0.00,,---,0.01,VWS V14.01,2013-03-07 11:00:00,
2013-03-07 06:02:00,31.4,28.3,30.01,NNE,28,2.0,7.0,88,0.00,,---,0.01,VWS V14.01,2013-03-07 11:02:00,
2013-03-07 06:05:00,31.8,27.5,30.02,North,355,2.0,13.0,84,0.00,,---,0.01,VWS V14.01,2013-03-07 11:05:00,
2013-03-07 06:07:00,31.4,28.3,30.01,NNW,340,14.0,14.0,88,0.00,,---,0.01,VWS V14.01,2013-03-07 11:07:00,
2013-03-07 06:10:00,31.8,27.2,30.02,North,11,1.0,15.0,83,0.00,,---,0.01,VWS V14.01,2013-03-07 11:10:00,
2013-03-07 06:12:00,31.4,28.0,30.01,NW,314,13.0,18.0,87,0.00,,---,0.01,VWS V14.01,2013-03-07 11:12:00,
2013-03-07 06:15:00,31.9,27.6,30.02,East,79,2.0,12.0,84,0.00,,---,0.01,VWS V14.01,2013-03-07 11:15:00,
2013-03-07 06:17:00,31.4,28.0,30.01,NNW,336,2.0,13.0,87,0.00,,---,0.01,VWS V14.01,2013-03-07 11:17:00,
2013-03-07 06:20:00,31.9,27.3,30.02,NNE,22,4.0,10.0,83,0.00,,---,0.01,VWS V14.01,2013-03-07 11:20:00,
2013-03-07 06:23:00,31.5,27.8,30.01,NNE,20,5.0,10.0,86,0.00,,---,0.01,VWS V14.01,2013-03-07 11:23:00,
2013-03-07 06:25:00,31.9,27.3,30.02,NE,42,2.0,15.0,83,0.00,,---,0.01,VWS V14.01,2013-03-07 11:25:00,
2013-03-07 06:28:00,31.5,27.5,30.01,NNE,23,1.0,10.0,85,0.00,,---,0.01,VWS V14.01,2013-03-07 11:28:00,
2013-03-07 06:30:00,31.9,27.6,30.02,NNE,19,10.0,13.0,84,0.00,,---,0.01,VWS V14.01,2013-03-07 11:30:00,
2013-03-07 06:33:00,31.6,27.6,30.01,North,350,4.0,11.0,85,0.00,,---,0.01,VWS V14.01,2013-03-07 11:33:00,
2013-03-07 06:35:00,31.9,27.3,30.02,NNE,32,4.0,11.0,83,0.00,,---,0.01,VWS V14.01,2013-03-07 11:35:00,
2013-03-07 06:38:00,31.6,27.6,30.02,East,101,10.0,16.0,85,0.00,,---,0.01,VWS V14.01,2013-03-07 11:38:00,
2013-03-07 06:40:00,31.9,27.3,30.03,East,79,0.0,14.0,83,0.00,,---,0.01,VWS V14.01,2013-03-07 11:40:00,
2013-03-07 06:43:00,31.7,27.4,30.02,NNE,24,2.0,15.0,84,0.00,,---,0.01,VWS V14.01,2013-03-07 11:43:00,
2013-03-07 06:45:00,31.9,27.6,30.03,North,5,1.0,7.0,84,0.00,,---,0.01,VWS V14.01,2013-03-07 11:45:00,
2013-03-07 06:48:00,31.7,27.4,30.02,North,355,4.0,9.0,84,0.00,,---,0.01,VWS V14.01,2013-03-07 11:48:00,
2013-03-07 06:50:00,31.9,27.3,30.03,NNE,26,4.0,13.0,83,0.00,,---,0.01,VWS V14.01,2013-03-07 11:50:00,
2013-03-07 06:53:00,31.7,27.4,30.02,NNE,19,1.0,3.0,84,0.00,,---,0.01,VWS V14.01,2013-03-07 11:53:00,
2013-03-07 06:55:00,31.9,27.6,30.03,NE,36,15.0,15.0,84,0.00,,---,0.01,VWS V14.01,2013-03-07 11:55:00,
2013-03-07 06:58:00,31.8,27.2,30.02,NNE,19,4.0,6.0,83,0.00,,---,0.01,VWS V14.01,2013-03-07 11:58:00,
2013-03-07 07:00:00,32.0,27.7,30.02,NNW,344,4.0,15.0,84,0.00,,---,0.01,VWS V14.01,2013-03-07 12:00:00,
2013-03-07 07:03:00,31.8,27.2,30.02,North,360,11.0,11.0,83,0.00,,---,0.01,VWS V14.01,2013-03-07 12:03:00,
2013-03-07 07:05:00,32.0,27.7,30.02,NE,45,1.0,12.0,84,0.00,,---,0.01,VWS V14.01,2013-03-07 12:05:00,
2013-03-07 07:08:00,31.8,27.2,30.02,North,355,5.0,5.0,83,0.00,,---,0.01,VWS V14.01,2013-03-07 12:08:00,
2013-03-07 07:10:00,32.1,27.8,30.02,NNE,15,4.0,16.0,84,0.00,,---,0.01,VWS V14.01,2013-03-07 12:10:00,
2013-03-07 07:14:00,31.9,27.6,30.02,NNE,12,1.0,6.0,84,0.00,,---,0.01,VWS V14.01,2013-03-07 12:14:00,
2013-03-07 07:15:00,32.1,27.8,30.02,North,5,3.0,13.0,84,0.00,,---,0.01,VWS V14.01,2013-03-07 12:15:00,
2013-03-07 07:19:00,31.9,27.3,30.02,NE,44,6.0,15.0,83,0.00,,---,0.01,VWS V14.01,2013-03-07 12:19:00,
2013-03-07 07:20:00,32.2,27.9,30.02,NNE,28,7.0,12.0,84,0.00,,---,0.01,VWS V14.01,2013-03-07 12:20:00,
2013-03-07 07:24:00,31.9,27.3,30.02,NNW,340,0.0,2.0,83,0.00,,---,0.01,VWS V14.01,2013-03-07 12:24:00,
2013-03-07 07:25:00,32.2,27.9,30.02,NNW,342,2.0,14.0,84,0.00,,---,0.01,VWS V14.01,2013-03-07 12:25:00,
2013-03-07 07:29:00,31.9,27.3,30.02,North,360,3.0,10.0,83,0.00,,---,0.01,VWS V14.01,2013-03-07 12:29:00,
2013-03-07 07:30:00,32.3,28.0,30.02,NNW,347,0.0,10.0,84,0.00,,---,0.01,VWS V14.01,2013-03-07 12:30:00,
2013-03-07 07:34:00,31.9,27.3,30.02,NNE,22,3.0,14.0,83,0.00,,---,0.01,VWS V14.01,2013-03-07 12:34:00,
2013-03-07 07:35:00,32.3,28.0,30.02,NNW,348,13.0,15.0,84,0.00,,---,0.01,VWS V14.01,2013-03-07 12:35:00,
2013-03-07 07:40:00,31.9,27.3,30.03,NNE,28,2.0,7.0,83,0.00,,---,0.01,VWS V14.01,2013-03-07 12:40:00,
2013-03-07 07:45:00,31.9,27.6,30.03,NNE,29,3.0,8.0,84,0.00,,---,0.01,VWS V14.01,2013-03-07 12:45:00,
2013-03-07 07:50:00,31.9,27.6,30.03,NNE,19,5.0,7.0,84,0.00,,---,0.01,VWS V14.01,2013-03-07 12:50:00,
2013-03-07 07:55:00,31.9,27.6,30.03,NNW,334,4.0,15.0,84,0.00,,---,0.01,VWS V14.01,2013-03-07 12:55:00,
2013-03-07 08:00:00,32.0,27.7,30.02,North,355,5.0,12.0,84,0.00,,---,0.01,VWS V14.01,2013-03-07 13:00:00,
2013-03-07 08:05:00,32.0,27.7,30.02,WNW,302,6.0,10.0,84,0.00,,---,0.01,VWS V14.01,2013-03-07 13:05:00,
2013-03-07 08:10:00,32.5,28.8,30.01,NNW,342,5.0,10.0,86,0.00,,---,0.01,VWS V14.01,2013-03-07 13:10:00,
2013-03-07 08:11:00,32.1,27.8,30.02,WNW,300,5.0,8.0,84,0.00,,---,0.01,VWS V14.01,2013-03-07 13:11:00,
2013-03-07 08:15:00,32.5,28.8,30.02,East,101,2.0,11.0,86,0.00,,---,0.01,VWS V14.01,2013-03-07 13:15:00,
2013-03-07 08:16:00,32.2,27.6,30.02,ENE,74,1.0,12.0,83,0.00,,---,0.01,VWS V14.01,2013-03-07 13:16:00,
2013-03-07 08:20:00,32.6,28.9,30.02,NNE,15,2.0,12.0,86,0.00,,---,0.01,VWS V14.01,2013-03-07 13:20:00,
2013-03-07 08:21:00,32.2,27.9,30.02,NE,50,5.0,10.0,84,0.00,,---,0.01,VWS V14.01,2013-03-07 13:21:00,
2013-03-07 08:25:00,32.6,28.6,30.01,NNE,22,7.0,16.0,85,0.00,,---,0.01,VWS V14.01,2013-03-07 13:25:00,
2013-03-07 08:26:00,32.3,28.0,30.02,SE,124,2.0,10.0,84,0.00,,---,0.01,VWS V14.01,2013-03-07 13:26:00,
2013-03-07 08:30:00,32.6,28.6,30.01,North,5,2.0,13.0,85,0.00,,---,0.01,VWS V14.01,2013-03-07 13:30:00,
2013-03-07 08:31:00,32.3,28.3,30.02,North,5,7.0,7.0,85,0.00,,---,0.01,VWS V14.01,2013-03-07 13:31:00,
2013-03-07 08:35:00,32.7,29.0,30.01,WNW,297,4.0,12.0,86,0.00,,---,0.01,VWS V14.01,2013-03-07 13:35:00,
2013-03-07 08:36:00,32.3,28.0,30.02,NNW,344,7.0,13.0,84,0.00,,---,0.01,VWS V14.01,2013-03-07 13:36:00,
2013-03-07 08:40:00,32.7,29.0,30.01,NNE,24,2.0,12.0,86,0.00,,---,0.01,VWS V14.01,2013-03-07 13:40:00,
2013-03-07 08:41:00,32.3,28.3,30.02,ENE,61,2.0,12.0,85,0.00,,---,0.01,VWS V14.01,2013-03-07 13:41:00,
2013-03-07 08:45:00,32.8,29.4,30.01,ENE,76,3.0,11.0,87,0.00,,---,0.01,VWS V14.01,2013-03-07 13:45:00,
2013-03-07 08:46:00,32.4,28.4,30.02,NNW,346,5.0,11.0,85,0.00,,---,0.01,VWS V14.01,2013-03-07 13:46:00,
2013-03-07 08:50:00,32.9,29.5,30.01,NE,38,3.0,8.0,87,0.00,,---,0.01,VWS V14.01,2013-03-07 13:50:00,
2013-03-07 08:52:00,32.4,28.7,30.02,ENE,67,5.0,11.0,86,0.00,,---,0.01,VWS V14.01,2013-03-07 13:52:00,
2013-03-07 08:55:00,32.7,29.3,30.01,NNE,31,1.0,14.0,87,0.00,,---,0.01,VWS V14.01,2013-03-07 13:55:00,
2013-03-07 08:57:00,32.4,28.7,30.02,NE,46,4.0,15.0,86,0.00,,---,0.01,VWS V14.01,2013-03-07 13:57:00,
2013-03-07 09:00:00,32.7,29.8,30.01,North,11,2.0,10.0,89,0.00,,---,0.01,VWS V14.01,2013-03-07 14:00:00,
2013-03-07 09:02:00,32.5,28.8,30.02,NNW,348,9.0,9.0,86,0.00,,---,0.01,VWS V14.01,2013-03-07 14:02:00,
2013-03-07 09:05:00,32.7,29.8,30.01,NE,44,4.0,12.0,89,0.00,,---,0.01,VWS V14.01,2013-03-07 14:05:00,
2013-03-07 09:07:00,32.5,28.8,30.01,North,360,6.0,10.0,86,0.00,,---,0.01,VWS V14.01,2013-03-07 14:07:00,
2013-03-07 09:10:00,32.8,29.9,30.01,NNE,26,3.0,12.0,89,0.00,,---,0.01,VWS V14.01,2013-03-07 14:10:00,
2013-03-07 09:12:00,32.5,28.8,30.02,North,5,7.0,11.0,86,0.00,,---,0.01,VWS V14.01,2013-03-07 14:12:00,
2013-03-07 09:15:00,32.8,29.9,30.01,NNW,348,4.0,15.0,89,0.00,,---,0.01,VWS V14.01,2013-03-07 14:15:00,
2013-03-07 09:17:00,32.6,28.9,30.02,NW,309,9.0,12.0,86,0.00,,---,0.01,VWS V14.01,2013-03-07 14:17:00,
2013-03-07 09:20:00,32.8,29.9,30.01,NE,46,3.0,11.0,89,0.00,,---,0.01,VWS V14.01,2013-03-07 14:20:00,
2013-03-07 09:22:00,32.6,28.6,30.01,North,350,11.0,15.0,85,0.00,,---,0.01,VWS V14.01,2013-03-07 14:22:00,
2013-03-07 09:25:00,32.8,29.9,30.01,NW,325,6.0,10.0,89,0.00,,---,0.01,VWS V14.01,2013-03-07 14:25:00,
2013-03-07 09:27:00,32.6,28.6,30.01,North,355,4.0,13.0,85,0.00,,---,0.01,VWS V14.01,2013-03-07 14:27:00,
2013-03-07 09:30:00,32.7,29.8,30.01,NE,46,4.0,12.0,89,0.00,,---,0.01,VWS V14.01,2013-03-07 14:30:00,
2013-03-07 09:33:00,32.7,29.0,30.01,North,355,0.0,12.0,86,0.00,,---,0.01,VWS V14.01,2013-03-07 14:33:00,
2013-03-07 09:35:00,32.7,30.1,30.01,NE,50,5.0,10.0,90,0.01,,---,0.02,VWS V14.01,2013-03-07 14:35:00,
2013-03-07 09:38:00,32.7,29.0,30.01,NNE,24,2.0,12.0,86,0.00,,---,0.01,VWS V14.01,2013-03-07 14:38:00,
2013-03-07 09:40:00,32.7,30.1,30.01,NE,40,6.0,13.0,90,0.01,,---,0.02,VWS V14.01,2013-03-07 14:40:00,
2013-03-07 09:43:00,32.8,29.4,30.01,East,101,3.0,3.0,87,0.00,,---,0.01,VWS V14.01,2013-03-07 14:43:00,
2013-03-07 09:45:00,32.9,30.6,30.01,NE,49,0.0,14.0,91,0.01,,---,0.02,VWS V14.01,2013-03-07 14:45:00,
2013-03-07 09:48:00,32.9,29.5,30.01,NE,38,1.0,3.0,87,0.00,,---,0.01,VWS V14.01,2013-03-07 14:48:00,
2013-03-07 09:50:00,32.9,30.3,30.01,ENE,61,6.0,14.0,90,0.01,,---,0.02,VWS V14.01,2013-03-07 14:50:00,
2013-03-07 09:53:00,32.7,29.5,30.01,NNE,31,1.0,1.0,88,0.00,,---,0.01,VWS V14.01,2013-03-07 14:53:00,
2013-03-07 09:55:00,32.9,30.3,30.01,NNW,347,2.0,11.0,90,0.01,,---,0.02,VWS V14.01,2013-03-07 14:55:00,
2013-03-07 09:58:00,32.7,29.8,30.01,NNE,15,7.0,7.0,89,0.00,,---,0.01,VWS V14.01,2013-03-07 14:58:00,
2013-03-07 10:00:00,32.7,30.1,30.01,NE,53,6.0,16.0,90,0.01,,---,0.02,VWS V14.01,2013-03-07 15:00:00,
2013-03-07 10:03:00,32.7,29.8,30.01,North,355,2.0,5.0,89,0.00,,---,0.01,VWS V14.01,2013-03-07 15:03:00,
2013-03-07 10:05:00,32.7,30.4,30.01,NNE,13,6.0,9.0,91,0.01,,---,0.02,VWS V14.01,2013-03-07 15:05:00,
2013-03-07 10:09:00,32.8,29.9,30.01,North,9,5.0,10.0,89,0.00,,---,0.01,VWS V14.01,2013-03-07 15:09:00,
2013-03-07 10:10:00,32.6,30.3,30.01,NE,40,3.0,13.0,91,0.02,,---,0.03,VWS V14.01,2013-03-07 15:10:00,
2013-03-07 10:14:00,32.8,29.9,30.01,North,5,6.0,11.0,89,0.00,,---,0.01,VWS V14.01,2013-03-07 15:14:00,
2013-03-07 10:15:00,32.6,30.3,30.01,NW,323,1.0,12.0,91,0.02,,---,0.03,VWS V14.01,2013-03-07 15:15:00,
2013-03-07 10:19:00,32.8,29.9,30.01,NNE,19,4.0,7.0,89,0.00,,---,0.01,VWS V14.01,2013-03-07 15:19:00,
2013-03-07 10:20:00,32.6,30.5,30.01,NNE,33,2.0,18.0,92,0.02,,---,0.03,VWS V14.01,2013-03-07 15:20:00,
2013-03-07 10:24:00,32.8,29.9,30.01,NE,55,5.0,12.0,89,0.00,,---,0.01,VWS V14.01,2013-03-07 15:24:00,
2013-03-07 10:25:00,32.6,30.5,30.01,ENE,57,3.0,12.0,92,0.02,,---,0.03,VWS V14.01,2013-03-07 15:25:00,
2013-03-07 10:29:00,32.7,30.1,30.01,ENE,60,4.0,5.0,90,0.01,,---,0.02,VWS V14.01,2013-03-07 15:29:00,
2013-03-07 10:30:00,32.7,30.6,30.02,NNE,15,1.0,15.0,92,0.02,,---,0.03,VWS V14.01,2013-03-07 15:30:00,
2013-03-07 10:34:00,32.8,30.2,30.01,NNE,32,5.0,13.0,90,0.01,,---,0.02,VWS V14.01,2013-03-07 15:34:00,
2013-03-07 10:35:00,32.8,30.7,30.02,NW,310,4.0,5.0,92,0.02,,---,0.03,VWS V14.01,2013-03-07 15:35:00,
2013-03-07 10:39:00,32.8,30.2,30.01,ENE,57,1.0,6.0,90,0.01,,---,0.02,VWS V14.01,2013-03-07 15:39:00,
2013-03-07 10:40:00,32.8,30.7,30.02,NE,43,10.0,11.0,92,0.02,,---,0.04,VWS V14.01,2013-03-07 15:40:00,
2013-03-07 10:45:00,32.9,30.3,30.01,NNW,333,1.0,10.0,90,0.01,,---,0.02,VWS V14.01,2013-03-07 15:45:00,
2013-03-07 10:50:00,32.9,30.3,30.01,NNW,344,5.0,9.0,90,0.01,,---,0.02,VWS V14.01,2013-03-07 15:50:00,
2013-03-07 10:55:00,32.8,30.2,30.01,ESE,112,4.0,16.0,90,0.01,,---,0.02,VWS V14.01,2013-03-07 15:55:00,
2013-03-07 11:00:00,32.7,30.1,30.01,NNE,17,6.0,9.0,90,0.01,,---,0.02,VWS V14.01,2013-03-07 16:00:00,
2013-03-07 11:05:00,32.6,30.3,30.01,North,360,4.0,13.0,91,0.02,,---,0.03,VWS V14.01,2013-03-07 16:05:00,
2013-03-07 11:10:00,32.6,30.3,30.01,ESE,123,1.0,7.0,91,0.02,,---,0.03,VWS V14.01,2013-03-07 16:10:00,
2013-03-07 11:15:00,32.8,31.0,30.01,North,351,4.0,10.0,93,0.01,,---,0.04,VWS V14.01,2013-03-07 16:15:00,
2013-03-07 11:16:00,32.6,30.3,30.01,NNE,18,5.0,18.0,91,0.02,,---,0.03,VWS V14.01,2013-03-07 16:16:00,
2013-03-07 11:20:00,33.0,31.2,30.01,NNE,33,11.0,11.0,93,0.01,,---,0.04,VWS V14.01,2013-03-07 16:20:00,
2013-03-07 11:21:00,32.6,30.5,30.01,North,360,2.0,12.0,92,0.02,,---,0.03,VWS V14.01,2013-03-07 16:21:00,
2013-03-07 11:25:00,33.1,31.3,30.01,NNE,31,3.0,12.0,93,0.02,,---,0.05,VWS V14.01,2013-03-07 16:25:00,
2013-03-07 11:26:00,32.7,30.6,30.01,SE,132,7.0,15.0,92,0.02,,---,0.03,VWS V14.01,2013-03-07 16:26:00,
2013-03-07 11:30:00,33.2,31.4,30.01,NNW,339,3.0,10.0,93,0.02,,---,0.05,VWS V14.01,2013-03-07 16:30:00,
2013-03-07 11:31:00,32.7,30.6,30.02,NNW,335,2.0,5.0,92,0.02,,---,0.03,VWS V14.01,2013-03-07 16:31:00,
2013-03-07 11:35:00,33.2,31.4,30.01,North,5,4.0,7.0,93,0.02,,---,0.05,VWS V14.01,2013-03-07 16:35:00,
2013-03-07 11:36:00,32.8,30.7,30.02,North,10,4.0,11.0,92,0.02,,---,0.04,VWS V14.01,2013-03-07 16:36:00,
2013-03-07 11:40:00,33.3,31.2,30.01,NNE,28,1.0,5.0,92,0.02,,---,0.05,VWS V14.01,2013-03-07 16:40:00,
2013-03-07 11:41:00,32.8,30.7,30.01,NNE,13,11.0,11.0,92,0.02,,---,0.04,VWS V14.01,2013-03-07 16:41:00,
2013-03-07 11:45:00,33.4,31.3,30.01,North,11,2.0,14.0,92,0.01,,---,0.05,VWS V14.01,2013-03-07 16:45:00,
2013-03-07 11:47:00,32.8,30.7,30.01,North,10,6.0,12.0,92,0.02,,---,0.04,VWS V14.01,2013-03-07 16:47:00,
2013-03-07 11:50:00,33.4,31.3,30.00,ENE,66,10.0,18.0,92,0.01,,---,0.05,VWS V14.01,2013-03-07 16:50:00,
2013-03-07 11:52:00,32.8,30.7,30.01,NNE,23,3.0,11.0,92,0.02,,---,0.04,VWS V14.01,2013-03-07 16:52:00,
2013-03-07 11:55:00,33.3,31.2,30.01,NW,313,6.0,15.0,92,0.01,,---,0.05,VWS V14.01,2013-03-07 16:55:00,
2013-03-07 11:57:00,32.7,30.6,30.01,NE,45,9.0,13.0,92,0.02,,---,0.04,VWS V14.01,2013-03-07 16:57:00,
2013-03-07 12:00:00,33.5,31.4,30.00,NNW,346,4.0,10.0,92,0.01,,---,0.05,VWS V14.01,2013-03-07 17:00:00,
2013-03-07 12:02:00,32.7,30.6,30.01,NNE,14,2.0,12.0,92,0.02,,---,0.04,VWS V14.01,2013-03-07 17:02:00,
2013-03-07 12:05:00,33.5,31.2,30.00,North,355,1.0,11.0,91,0.01,,---,0.05,VWS V14.01,2013-03-07 17:05:00,
2013-03-07 12:07:00,32.7,30.6,30.01,NNE,13,2.0,11.0,92,0.02,,---,0.04,VWS V14.01,2013-03-07 17:07:00,
2013-03-07 12:10:00,33.5,31.4,30.01,NNW,341,3.0,11.0,92,0.01,,---,0.05,VWS V14.01,2013-03-07 17:10:00,
2013-03-07 12:12:00,32.8,31.0,30.01,WNW,302,4.0,10.0,93,0.01,,---,0.04,VWS V14.01,2013-03-07 17:12:00,
2013-03-07 12:15:00,33.6,31.5,30.01,NNW,347,1.0,16.0,92,0.01,,---,0.05,VWS V14.01,2013-03-07 17:15:00,
2013-03-07 12:18:00,32.9,31.1,30.01,NNE,33,11.0,11.0,93,0.01,,---,0.04,VWS V14.01,2013-03-07 17:18:00,
2013-03-07 12:20:00,33.5,31.4,30.01,NNW,338,3.0,9.0,92,0.01,,---,0.05,VWS V14.01,2013-03-07 17:20:00,
2013-03-07 12:23:00,33.1,31.3,30.01,NNE,30,3.0,12.0,93,0.02,,---,0.05,VWS V14.01,2013-03-07 17:23:00,
2013-03-07 12:25:00,33.4,31.3,30.00,North,360,5.0,14.0,92,0.01,,---,0.05,VWS V14.01,2013-03-07 17:25:00,
2013-03-07 12:28:00,33.2,31.4,30.01,NNW,339,3.0,10.0,93,0.02,,---,0.05,VWS V14.01,2013-03-07 17:28:00,
2013-03-07 12:30:00,33.5,31.4,30.00,NW,311,8.0,10.0,92,0.01,,---,0.06,VWS V14.01,2013-03-07 17:30:00,
2013-03-07 12:33:00,33.2,31.4,30.01,North,5,4.0,7.0,93,0.02,,---,0.05,VWS V14.01,2013-03-07 17:33:00,
2013-03-07 12:35:00,33.5,31.4,30.00,North,360,1.0,13.0,92,0.01,,---,0.06,VWS V14.01,2013-03-07 17:35:00,
2013-03-07 12:38:00,33.3,31.2,30.01,NNE,28,1.0,5.0,92,0.02,,---,0.05,VWS V14.01,2013-03-07 17:38:00,
2013-03-07 12:40:00,33.5,31.4,30.00,NNE,12,2.0,11.0,92,0.01,,---,0.06,VWS V14.01,2013-03-07 17:40:00,
2013-03-07 12:43:00,33.4,31.3,30.01,North,11,2.0,14.0,92,0.01,,---,0.05,VWS V14.01,2013-03-07 17:43:00,
2013-03-07 12:45:00,33.6,31.5,30.00,North,5,5.0,12.0,92,0.01,,---,0.06,VWS V14.01,2013-03-07 17:45:00,
2013-03-07 12:48:00,33.3,31.2,30.00,NE,46,6.0,10.0,92,0.01,,---,0.05,VWS V14.01,2013-03-07 17:48:00,
2013-03-07 12:50:00,33.7,31.6,30.00,NNE,30,0.0,10.0,92,0.01,,---,0.06,VWS V14.01,2013-03-07 17:50:00,
2013-03-07 12:53:00,33.4,31.3,30.01,NE,54,2.0,7.0,92,0.01,,---,0.05,VWS V14.01,2013-03-07 17:53:00,
2013-03-07 12:55:00,33.6,31.5,30.00,NNW,347,0.0,6.0,92,0.01,,---,0.06,VWS V14.01,2013-03-07 17:55:00,
2013-03-07 12:58:00,33.5,31.4,30.00,WNW,300,3.0,9.0,92,0.01,,---,0.05,VWS V14.01,2013-03-07 17:58:00,
2013-03-07 13:00:00,33.7,31.6,30.00,NE,36,2.0,7.0,92,0.01,,---,0.06,VWS V14.01,2013-03-07 18:00:00,
2013-03-07 13:04:00,33.6,31.5,30.00,NE,37,5.0,5.0,92,0.01,,---,0.05,VWS V14.01,2013-03-07 18:04:00,
2013-03-07 13:05:00,33.6,31.5,30.00,NNW,341,6.0,6.0,92,0.01,,---,0.06,VWS V14.01,2013-03-07 18:05:00,
2013-03-07 13:09:00,33.5,31.4,30.01,NNE,12,3.0,16.0,92,0.01,,---,0.05,VWS V14.01,2013-03-07 18:09:00,
2013-03-07 13:10:00,33.5,31.4,30.00,North,360,3.0,11.0,92,0.01,,---,0.06,VWS V14.01,2013-03-07 18:10:00,
2013-03-07 13:14:00,33.5,31.4,30.00,NNW,330,3.0,6.0,92,0.01,,---,0.05,VWS V14.01,2013-03-07 18:14:00,
2013-03-07 13:15:00,33.5,31.4,30.00,NE,46,2.0,6.0,92,0.01,,---,0.06,VWS V14.01,2013-03-07 18:15:00,
2013-03-07 13:19:00,33.5,31.4,30.00,NE,51,4.0,14.0,92,0.01,,---,0.05,VWS V14.01,2013-03-07 18:19:00,
2013-03-07 13:20:00,33.6,31.5,30.00,NNW,341,7.0,7.0,92,0.01,,---,0.06,VWS V14.01,2013-03-07 18:20:00,
2013-03-07 13:24:00,33.4,31.3,30.00,NE,36,0.0,5.0,92,0.00,,---,0.05,VWS V14.01,2013-03-07 18:24:00,
2013-03-07 13:25:00,33.5,31.4,30.00,NE,44,1.0,7.0,92,0.01,,---,0.06,VWS V14.01,2013-03-07 18:25:00,
2013-03-07 13:29:00,33.5,31.4,30.00,North,355,1.0,10.0,92,0.01,,---,0.06,VWS V14.01,2013-03-07 18:29:00,
2013-03-07 13:30:00,33.6,31.5,30.00,NNE,16,0.0,7.0,92,0.01,,---,0.06,VWS V14.01,2013-03-07 18:30:00,
2013-03-07 13:35:00,33.5,31.4,30.00,NW,326,4.0,11.0,92,0.01,,---,0.06,VWS V14.01,2013-03-07 18:35:00,
2013-03-07 13:40:00,33.6,31.5,30.00,NNE,24,1.0,4.0,92,0.01,,---,0.06,VWS V14.01,2013-03-07 18:40:00,
2013-03-07 13:45:00,33.6,31.5,30.00,NNE,12,4.0,10.0,92,0.01,,---,0.06,VWS V14.01,2013-03-07 18:45:00,
2013-03-07 13:50:00,33.6,31.3,30.00,NNE,26,0.0,6.0,91,0.01,,---,0.06,VWS V14.01,2013-03-07 18:50:00,
2013-03-07 13:55:00,33.7,31.6,30.00,NNW,329,5.0,5.0,92,0.01,,---,0.06,VWS V14.01,2013-03-07 18:55:00,
2013-03-07 14:00:00,33.7,31.6,30.00,NNE,25,3.0,4.0,92,0.01,,---,0.06,VWS V14.01,2013-03-07 19:00:00,
2013-03-07 14:05:00,33.4,31.6,30.01,NE,39,2.0,9.0,93,0.02,,---,0.08,VWS V14.01,2013-03-07 19:05:00,
2013-03-07 14:06:00,33.6,31.5,30.00,East,82,3.0,6.0,92,0.01,,---,0.06,VWS V14.01,2013-03-07 19:06:00,
2013-03-07 14:10:00,33.4,31.6,30.00,NNW,342,5.0,7.0,93,0.02,,---,0.08,VWS V14.01,2013-03-07 19:10:00,
2013-03-07 14:11:00,33.5,31.4,30.00,NE,44,2.0,5.0,92,0.01,,---,0.06,VWS V14.01,2013-03-07 19:11:00,
2013-03-07 14:15:00,33.3,31.5,30.00,North,10,0.0,5.0,93,0.02,,---,0.08,VWS V14.01,2013-03-07 19:15:00,
2013-03-07 14:16:00,33.6,31.5,30.00,NE,34,3.0,5.0,92,0.01,,---,0.06,VWS V14.01,2013-03-07 19:16:00,
2013-03-07 14:20:00,33.2,31.4,30.00,NNE,19,1.0,7.0,93,0.02,,---,0.08,VWS V14.01,2013-03-07 19:20:00,
2013-03-07 14:21:00,33.6,31.5,30.00,NE,38,0.0,7.0,92,0.01,,---,0.06,VWS V14.01,2013-03-07 19:21:00,
2013-03-07 14:25:00,33.1,31.3,30.00,WNW,298,0.0,6.0,93,0.02,,---,0.08,VWS V14.01,2013-03-07 19:25:00,
2013-03-07 14:26:00,33.5,31.4,30.00,North,9,6.0,7.0,92,0.01,,---,0.06,VWS V14.01,2013-03-07 19:26:00,
2013-03-07 14:30:00,33.0,31.5,30.00,North,350,1.0,6.0,94,0.02,,---,0.08,VWS V14.01,2013-03-07 19:30:00,
2013-03-07 14:32:00,33.6,31.5,30.00,NE,35,5.0,11.0,92,0.00,,---,0.06,VWS V14.01,2013-03-07 19:32:00,
2013-03-07 14:35:00,33.0,31.5,30.00,North,355,0.0,6.0,94,0.02,,---,0.08,VWS V14.01,2013-03-07 19:35:00,
2013-03-07 14:37:00,33.5,31.4,30.00,NE,46,1.0,9.0,92,0.01,,---,0.07,VWS V14.01,2013-03-07 19:37:00,
2013-03-07 14:40:00,33.0,31.5,30.00,NE,51,0.0,2.0,94,0.01,,---,0.08,VWS V14.01,2013-03-07 19:40:00,
2013-03-07 14:42:00,33.5,31.7,30.00,NNE,20,2.0,7.0,93,0.01,,---,0.07,VWS V14.01,2013-03-07 19:42:00,
2013-03-07 14:45:00,32.8,31.3,30.00,North,5,3.0,9.0,94,0.01,,---,0.08,VWS V14.01,2013-03-07 19:45:00,
2013-03-07 14:48:00,33.6,31.8,30.00,North,355,4.0,7.0,93,0.01,,---,0.07,VWS V14.01,2013-03-07 19:48:00,
2013-03-07 14:50:00,32.7,31.2,30.00,NE,44,0.0,5.0,94,0.01,,---,0.08,VWS V14.01,2013-03-07 19:50:00,
2013-03-07 14:53:00,33.6,31.8,30.00,NNE,32,9.0,12.0,93,0.01,,---,0.07,VWS V14.01,2013-03-07 19:53:00,
2013-03-07 14:55:00,32.6,31.1,30.00,North,355,1.0,10.0,94,0.01,,---,0.08,VWS V14.01,2013-03-07 19:55:00,
2013-03-07 14:58:00,33.5,31.7,30.00,NE,54,6.0,14.0,93,0.02,,---,0.08,VWS V14.01,2013-03-07 19:58:00,
2013-03-07 15:00:00,32.5,31.0,30.00,NNE,14,6.0,7.0,94,0.01,,---,0.08,VWS V14.01,2013-03-07 20:00:00,
2013-03-07 15:03:00,33.4,31.6,30.01,NE,39,2.0,9.0,93,0.02,,---,0.08,VWS V14.01,2013-03-07 20:03:00,
2013-03-07 15:05:00,32.4,30.9,30.00,NNE,12,6.0,7.0,94,0.00,,---,0.08,VWS V14.01,2013-03-07 20:05:00,
2013-03-07 15:08:00,33.3,31.5,30.00,NNW,338,3.0,7.0,93,0.02,,---,0.08,VWS V14.01,2013-03-07 20:08:00,
2013-03-07 15:10:00,32.2,30.7,30.00,North,355,4.0,11.0,94,0.00,,---,0.08,VWS V14.01,2013-03-07 20:10:00,
2013-03-07 15:13:00,33.3,31.5,30.00,North,10,0.0,5.0,93,0.02,,---,0.08,VWS V14.01,2013-03-07 20:13:00,
2013-03-07 15:15:00,32.0,30.5,30.00,North,9,1.0,10.0,94,0.00,,---,0.08,VWS V14.01,2013-03-07 20:15:00,
2013-03-07 15:18:00,33.2,31.4,30.00,NNE,19,1.0,7.0,93,0.02,,---,0.08,VWS V14.01,2013-03-07 20:18:00,
2013-03-07 15:20:00,31.8,30.3,30.01,North,360,1.0,13.0,94,0.00,,---,0.08,VWS V14.01,2013-03-07 20:20:00,
2013-03-07 15:23:00,33.1,31.3,30.00,WNW,299,0.0,0.0,93,0.02,,---,0.08,VWS V14.01,2013-03-07 20:23:00,
2013-03-07 15:25:00,31.8,30.3,30.01,North,349,3.0,9.0,94,0.00,,---,0.08,VWS V14.01,2013-03-07 20:25:00,
2013-03-07 15:28:00,33.0,31.5,30.00,North,349,2.0,2.0,94,0.02,,---,0.08,VWS V14.01,2013-03-07 20:28:00,
2013-03-07 15:30:00,31.8,30.3,30.00,NW,310,3.0,9.0,94,0.00,,---,0.08,VWS V14.01,2013-03-07 20:30:00,
2013-03-07 15:34:00,33.0,31.5,30.00,North,355,1.0,1.0,94,0.01,,---,0.08,VWS V14.01,2013-03-07 20:34:00,
2013-03-07 15:35:00,31.7,30.2,30.01,NNW,346,3.0,16.0,94,0.00,,---,0.08,VWS V14.01,2013-03-07 20:35:00,
2013-03-07 15:39:00,32.9,31.4,30.00,NW,309,2.0,6.0,94,0.01,,---,0.08,VWS V14.01,2013-03-07 20:39:00,
2013-03-07 15:40:00,31.7,30.2,30.01,ESE,115,0.0,7.0,94,0.00,,---,0.08,VWS V14.01,2013-03-07 20:40:00,
2013-03-07 15:44:00,32.8,31.3,30.00,NNE,12,5.0,5.0,94,0.01,,---,0.08,VWS V14.01,2013-03-07 20:44:00,
2013-03-07 15:45:00,31.7,30.2,30.01,North,5,6.0,12.0,94,0.01,,---,0.09,VWS V14.01,2013-03-07 20:45:00,
2013-03-07 15:49:00,32.7,31.2,30.00,NNW,346,0.0,5.0,94,0.01,,---,0.08,VWS V14.01,2013-03-07 20:49:00,
2013-03-07 15:50:00,31.8,30.3,30.01,NNW,340,5.0,9.0,94,0.01,,---,0.09,VWS V14.01,2013-03-07 20:50:00,
2013-03-07 15:54:00,32.5,31.0,30.00,NNE,13,1.0,5.0,94,0.01,,---,0.08,VWS V14.01,2013-03-07 20:54:00,
2013-03-07 15:55:00,31.7,30.2,30.01,NNW,329,4.0,8.0,94,0.01,,---,0.09,VWS V14.01,2013-03-07 20:55:00,
2013-03-07 15:59:00,32.5,31.0,30.00,North,355,1.0,6.0,94,0.00,,---,0.08,VWS V14.01,2013-03-07 20:59:00,
2013-03-07 16:00:00,31.7,30.2,30.01,ENE,58,1.0,9.0,94,0.01,,---,0.09,VWS V14.01,2013-03-07 21:00:00,
2013-03-07 16:05:00,32.3,30.8,30.00,North,360,5.0,11.0,94,0.00,,---,0.08,VWS V14.01,2013-03-07 21:05:00,
2013-03-07 16:10:00,32.1,30.6,30.00,NE,49,5.0,10.0,94,0.00,,---,0.08,VWS V14.01,2013-03-07 21:10:00,
2013-03-07 16:15:00,32.0,30.5,30.01,NNE,23,5.0,12.0,94,0.00,,---,0.08,VWS V14.01,2013-03-07 21:15:00,
2013-03-07 16:20:00,31.8,30.3,30.01,NNE,32,3.0,5.0,94,0.00,,---,0.08,VWS V14.01,2013-03-07 21:20:00,
2013-03-07 16:25:00,31.8,30.3,30.00,North,355,3.0,7.0,94,0.00,,---,0.08,VWS V14.01,2013-03-07 21:25:00,
2013-03-07 16:30:00,31.8,30.3,30.01,NNE,19,4.0,16.0,94,0.00,,---,0.08,VWS V14.01,2013-03-07 21:30:00,
2013-03-07 16:35:00,31.5,30.0,30.01,NNE,13,2.0,6.0,94,0.01,,---,0.09,VWS V14.01,2013-03-07 21:35:00,
2013-03-07 16:36:00,31.7,30.2,30.01,NE,50,3.0,7.0,94,0.00,,---,0.08,VWS V14.01,2013-03-07 21:36:00,
2013-03-07 16:40:00,31.5,30.0,30.01,NNW,340,0.0,7.0,94,0.01,,---,0.09,VWS V14.01,2013-03-07 21:40:00,
2013-03-07 16:41:00,31.7,30.2,30.01,North,5,2.0,12.0,94,0.01,,---,0.09,VWS V14.01,2013-03-07 21:41:00,
2013-03-07 16:45:00,31.5,30.0,30.01,NE,42,0.0,6.0,94,0.01,,---,0.09,VWS V14.01,2013-03-07 21:45:00,
2013-03-07 16:46:00,31.7,30.2,30.01,NNE,16,0.0,6.0,94,0.01,,---,0.09,VWS V14.01,2013-03-07 21:46:00,
2013-03-07 16:50:00,31.4,29.9,30.01,WNW,286,3.0,9.0,94,0.00,,---,0.09,VWS V14.01,2013-03-07 21:50:00,
2013-03-07 16:51:00,31.8,30.3,30.01,NW,320,2.0,6.0,94,0.01,,---,0.09,VWS V14.01,2013-03-07 21:51:00,
2013-03-07 16:55:00,31.5,30.0,30.01,North,5,3.0,10.0,94,0.00,,---,0.09,VWS V14.01,2013-03-07 21:55:00,
2013-03-07 16:56:00,31.7,30.2,30.01,North,11,3.0,9.0,94,0.01,,---,0.09,VWS V14.01,2013-03-07 21:56:00,
2013-03-07 17:00:00,31.4,29.9,30.02,North,11,2.0,11.0,94,0.00,,---,0.09,VWS V14.01,2013-03-07 22:00:00,
2013-03-07 17:01:00,31.7,30.2,30.01,NE,41,2.0,5.0,94,0.01,,---,0.09,VWS V14.01,2013-03-07 22:01:00,
2013-03-07 17:05:00,31.4,29.9,30.01,NNE,32,6.0,7.0,94,0.00,,---,0.09,VWS V14.01,2013-03-07 22:05:00,
2013-03-07 17:06:00,31.7,30.2,30.01,NE,34,2.0,5.0,94,0.01,,---,0.09,VWS V14.01,2013-03-07 22:06:00,
2013-03-07 17:10:00,31.4,29.9,30.01,SSW,213,3.0,14.0,94,0.00,,---,0.09,VWS V14.01,2013-03-07 22:10:00,
2013-03-07 17:12:00,31.7,30.2,30.01,NNW,348,1.0,8.0,94,0.01,,---,0.09,VWS V14.01,2013-03-07 22:12:00,
2013-03-07 17:15:00,31.4,29.6,30.01,NNW,348,6.0,6.0,93,0.00,,---,0.09,VWS V14.01,2013-03-07 22:15:00,
2013-03-07 17:17:00,31.7,30.2,30.01,NNW,347,1.0,7.0,94,0.01,,---,0.09,VWS V14.01,2013-03-07 22:17:00,
2013-03-07 17:20:00,31.4,29.6,30.01,NW,317,5.0,10.0,93,0.00,,---,0.09,VWS V14.01,2013-03-07 22:20:00,
2013-03-07 17:22:00,31.6,30.1,30.01,NNW,347,0.0,9.0,94,0.01,,---,0.09,VWS V14.01,2013-03-07 22:22:00,
2013-03-07 17:25:00,31.4,29.6,30.01,WNW,300,2.0,7.0,93,0.00,,---,0.09,VWS V14.01,2013-03-07 22:25:00,
2013-03-07 17:27:00,31.6,30.1,30.02,NNW,341,0.0,7.0,94,0.01,,---,0.09,VWS V14.01,2013-03-07 22:27:00,
2013-03-07 17:30:00,31.4,29.6,30.01,NNE,21,2.0,10.0,93,0.00,,---,0.09,VWS V14.01,2013-03-07 22:30:00,
2013-03-07 17:32:00,31.5,30.0,30.01,NNE,17,3.0,6.0,94,0.01,,---,0.09,VWS V14.01,2013-03-07 22:32:00,
2013-03-07 17:35:00,31.5,29.7,30.01,NW,319,2.0,7.0,93,0.00,,---,0.09,VWS V14.01,2013-03-07 22:35:00,
2013-03-07 17:37:00,31.5,30.0,30.01,North,351,2.0,7.0,94,0.01,,---,0.09,VWS V14.01,2013-03-07 22:37:00,
2013-03-07 17:40:00,31.5,29.7,30.01,North,360,4.0,4.0,93,0.00,,---,0.09,VWS V14.01,2013-03-07 22:40:00,
2013-03-07 17:42:00,31.5,30.0,30.01,NNE,16,1.0,6.0,94,0.01,,---,0.09,VWS V14.01,2013-03-07 22:42:00,
2013-03-07 17:45:00,31.6,29.5,30.00,North,5,3.0,7.0,92,0.00,,---,0.09,VWS V14.01,2013-03-07 22:45:00,
2013-03-07 17:48:00,31.4,29.9,30.01,NNE,17,2.0,9.0,94,0.00,,---,0.09,VWS V14.01,2013-03-07 22:48:00,
2013-03-07 17:50:00,31.6,29.5,30.01,NNE,17,2.0,4.0,92,0.00,,---,0.09,VWS V14.01,2013-03-07 22:50:00,
2013-03-07 17:53:00,31.5,30.0,30.01,North,5,3.0,10.0,94,0.00,,---,0.09,VWS V14.01,2013-03-07 22:53:00,
2013-03-07 17:55:00,31.6,29.5,30.01,North,9,2.0,9.0,92,0.00,,---,0.09,VWS V14.01,2013-03-07 22:55:00,
2013-03-07 17:58:00,31.4,29.9,30.02,NNE,16,2.0,2.0,94,0.00,,---,0.09,VWS V14.01,2013-03-07 22:58:00,
2013-03-07 18:00:00,31.6,29.5,30.00,NE,43,2.0,5.0,92,0.00,,---,0.09,VWS V14.01,2013-03-07 23:00:00,
2013-03-07 18:04:00,31.4,29.9,30.01,NNW,342,2.0,14.0,94,0.00,,---,0.09,VWS V14.01,2013-03-07 23:04:00,
2013-03-07 18:05:00,31.6,29.5,30.00,West,280,3.0,10.0,92,0.00,,---,0.09,VWS V14.01,2013-03-07 23:05:00,
2013-03-07 18:09:00,31.4,29.6,30.01,NNW,343,2.0,5.0,93,0.00,,---,0.09,VWS V14.01,2013-03-07 23:09:00,
2013-03-07 18:10:00,31.6,29.5,30.00,NNW,347,7.0,7.0,92,0.00,,---,0.09,VWS V14.01,2013-03-07 23:10:00,
2013-03-07 18:14:00,31.4,29.6,30.01,NNW,343,4.0,10.0,93,0.00,,---,0.09,VWS V14.01,2013-03-07 23:14:00,
2013-03-07 18:15:00,31.6,29.5,30.00,NNW,339,0.0,9.0,92,0.00,,---,0.09,VWS V14.01,2013-03-07 23:15:00,
2013-03-07 18:19:00,31.4,29.6,30.01,NW,325,4.0,7.0,93,0.00,,---,0.09,VWS V14.01,2013-03-07 23:19:00,
2013-03-07 18:20:00,31.5,29.5,30.01,NNE,19,0.0,7.0,92,0.00,,---,0.09,VWS V14.01,2013-03-07 23:20:00,
2013-03-07 18:24:00,31.4,29.6,30.01,ENE,78,4.0,6.0,93,0.00,,---,0.09,VWS V14.01,2013-03-07 23:24:00,
2013-03-07 18:25:00,31.5,29.5,30.00,NNE,19,0.0,5.0,92,0.00,,---,0.09,VWS V14.01,2013-03-07 23:25:00,
2013-03-07 18:29:00,31.4,29.6,30.01,SSE,153,0.0,2.0,93,0.00,,---,0.09,VWS V14.01,2013-03-07 23:29:00,
2013-03-07 18:30:00,31.5,29.5,30.00,North,5,4.0,6.0,92,0.00,,---,0.09,VWS V14.01,2013-03-07 23:30:00,
2013-03-07 18:34:00,31.5,29.7,30.01,NNE,29,0.0,4.0,93,0.00,,---,0.09,VWS V14.01,2013-03-07 23:34:00,
2013-03-07 18:35:00,31.5,29.5,30.00,SW,223,1.0,7.0,92,0.00,,---,0.09,VWS V14.01,2013-03-07 23:35:00,
2013-03-07 18:39:00,31.5,29.5,30.01,North,5,0.0,4.0,92,0.00,,---,0.09,VWS V14.01,2013-03-07 23:39:00,
2013-03-07 18:40:00,31.5,29.5,30.00,NE,34,2.0,7.0,92,0.00,,---,0.09,VWS V14.01,2013-03-07 23:40:00,
2013-03-07 18:44:00,31.6,29.5,30.01,NE,49,3.0,4.0,92,0.00,,---,0.09,VWS V14.01,2013-03-07 23:44:00,
2013-03-07 18:45:00,31.5,29.2,30.00,ENE,62,2.0,6.0,91,0.00,,---,0.09,VWS V14.01,2013-03-07 23:45:00,
2013-03-07 18:50:00,31.6,29.5,30.01,NNW,347,4.0,9.0,92,0.00,,---,0.09,VWS V14.01,2013-03-07 23:50:00,
2013-03-07 18:55:00,31.6,29.5,30.01,NNE,19,1.0,4.0,92,0.00,,---,0.09,VWS V14.01,2013-03-07 23:55:00,
2013-03-07 19:00:00,31.6,29.5,30.00,North,350,1.0,5.0,92,0.00,,---,0.09,VWS V14.01,2013-03-08 00:00:00,
2013-03-07 19:05:00,31.6,29.5,30.00,NNE,17,2.0,4.0,92,0.00,,---,0.09,VWS V14.01,2013-03-08 00:05:00,
2013-03-07 19:10:00,31.6,29.5,30.00,NNE,12,4.0,9.0,92,0.00,,---,0.09,VWS V14.01,2013-03-08 00:10:00,
2013-03-07 19:15:00,31.5,29.5,30.00,NNE,18,2.0,4.0,92,0.00,,---,0.09,VWS V14.01,2013-03-08 00:15:00,
2013-03-07 19:20:00,31.5,29.5,30.00,NNE,24,1.0,5.0,92,0.00,,---,0.09,VWS V14.01,2013-03-08 00:20:00,
2013-03-07 19:25:00,31.5,29.5,30.00,NNE,28,5.0,6.0,92,0.00,,---,0.09,VWS V14.01,2013-03-08 00:25:00,
2013-03-07 19:30:00,31.5,29.5,30.01,North,349,0.0,4.0,92,0.00,,---,0.09,VWS V14.01,2013-03-08 00:30:00,
2013-03-07 19:35:00,31.1,29.0,30.00,NNW,339,4.0,6.0,92,0.00,,---,0.09,VWS V14.01,2013-03-08 00:35:00,
2013-03-07 19:36:00,31.5,29.2,30.00,NNE,27,1.0,7.0,91,0.00,,---,0.09,VWS V14.01,2013-03-08 00:36:00,
2013-03-07 19:40:00,31.0,29.2,30.00,ENE,70,1.0,6.0,93,0.00,,---,0.09,VWS V14.01,2013-03-08 00:40:00,
2013-03-07 19:41:00,31.5,29.5,30.00,NNW,339,0.0,5.0,92,0.00,,---,0.09,VWS V14.01,2013-03-08 00:41:00,
2013-03-07 19:45:00,31.0,29.2,30.00,NNE,26,1.0,5.0,93,0.00,,---,0.09,VWS V14.01,2013-03-08 00:45:00,
2013-03-07 19:46:00,31.4,29.1,30.00,NW,315,2.0,4.0,91,0.00,,---,0.09,VWS V14.01,2013-03-08 00:46:00,
2013-03-07 19:50:00,30.9,29.1,30.00,NNW,338,7.0,7.0,93,0.00,,---,0.09,VWS V14.01,2013-03-08 00:50:00,
2013-03-07 19:51:00,31.5,29.2,30.00,NNE,22,3.0,9.0,91,0.00,,---,0.09,VWS V14.01,2013-03-08 00:51:00,
2013-03-07 19:55:00,31.0,29.2,29.99,NNW,344,0.0,8.0,93,0.00,,---,0.09,VWS V14.01,2013-03-08 00:55:00,
2013-03-07 19:56:00,31.4,29.1,30.00,NNW,329,3.0,6.0,91,0.00,,---,0.09,VWS V14.01,2013-03-08 00:56:00,
2013-03-07 20:00:00,30.9,29.1,30.00,North,350,1.0,4.0,93,0.00,,---,0.09,VWS V14.01,2013-03-08 01:00:00,
2013-03-07 20:01:00,31.4,29.4,30.00,NNW,348,0.0,4.0,92,0.00,,---,0.09,VWS V14.01,2013-03-08 01:01:00,
2013-03-07 20:05:00,30.9,29.1,29.99,WNW,286,6.0,7.0,93,0.00,,---,0.09,VWS V14.01,2013-03-08 01:05:00,
2013-03-07 20:06:00,31.3,29.2,30.00,North,5,5.0,6.0,92,0.00,,---,0.09,VWS V14.01,2013-03-08 01:06:00,
2013-03-07 20:10:00,30.9,29.1,29.99,North,360,3.0,6.0,93,0.00,,---,0.09,VWS V14.01,2013-03-08 01:10:00,
2013-03-07 20:11:00,31.2,29.1,30.00,North,355,3.0,5.0,92,0.00,,---,0.09,VWS V14.01,2013-03-08 01:11:00,
2013-03-07 20:15:00,30.9,29.1,29.99,NNW,348,2.0,6.0,93,0.00,,---,0.09,VWS V14.01,2013-03-08 01:15:00,
2013-03-07 20:16:00,31.2,29.1,30.00,NNW,340,3.0,6.0,92,0.00,,---,0.09,VWS V14.01,2013-03-08 01:16:00,
2013-03-07 20:20:00,30.9,29.1,29.99,NNE,24,1.0,6.0,93,0.00,,---,0.09,VWS V14.01,2013-03-08 01:20:00,
2013-03-07 20:21:00,31.2,29.1,30.00,NNW,339,1.0,6.0,92,0.00,,---,0.09,VWS V14.01,2013-03-08 01:21:00,
2013-03-07 20:25:00,30.9,29.1,29.98,NNE,30,2.0,5.0,93,0.00,,---,0.09,VWS V14.01,2013-03-08 01:25:00,
2013-03-07 20:27:00,31.1,29.0,30.00,North,360,3.0,6.0,92,0.00,,---,0.09,VWS V14.01,2013-03-08 01:27:00,
2013-03-07 20:30:00,30.9,29.1,29.98,SSE,150,2.0,5.0,93,0.00,,---,0.09,VWS V14.01,2013-03-08 01:30:00,
2013-03-07 20:32:00,31.1,29.0,30.00,North,360,2.0,6.0,92,0.00,,---,0.09,VWS V14.01,2013-03-08 01:32:00,
2013-03-07 20:35:00,30.9,29.1,29.99,North,11,5.0,7.0,93,0.00,,---,0.09,VWS V14.01,2013-03-08 01:35:00,
2013-03-07 20:37:00,31.0,29.2,30.00,NNE,16,0.0,6.0,93,0.00,,---,0.09,VWS V14.01,2013-03-08 01:37:00,
2013-03-07 20:40:00,30.9,29.1,29.98,NW,316,3.0,6.0,93,0.00,,---,0.09,VWS V14.01,2013-03-08 01:40:00,
2013-03-07 20:42:00,31.0,29.2,30.00,NE,38,4.0,4.0,93,0.00,,---,0.09,VWS V14.01,2013-03-08 01:42:00,
2013-03-07 20:45:00,30.9,29.1,29.98,NE,52,1.0,4.0,93,0.00,,---,0.09,VWS V14.01,2013-03-08 01:45:00,
2013-03-07 20:47:00,31.0,29.2,30.00,North,350,4.0,6.0,93,0.00,,---,0.09,VWS V14.01,2013-03-08 01:47:00,
2013-03-07 20:50:00,30.9,29.1,29.98,NW,315,2.0,8.0,93,0.00,,---,0.09,VWS V14.01,2013-03-08 01:50:00,
2013-03-07 20:52:00,31.0,29.2,30.00,NNW,343,1.0,8.0,93,0.00,,---,0.09,VWS V14.01,2013-03-08 01:52:00,
2013-03-07 20:55:00,30.9,29.1,29.98,NNE,13,0.0,5.0,93,0.00,,---,0.09,VWS V14.01,2013-03-08 01:55:00,
2013-03-07 20:57:00,30.9,29.1,30.00,North,350,2.0,4.0,93,0.00,,---,0.09,VWS V14.01,2013-03-08 01:57:00,
2013-03-07 21:00:00,30.9,29.1,29.98,NW,326,1.0,9.0,93,0.00,,---,0.09,VWS V14.01,2013-03-08 02:00:00,
2013-03-07 21:02:00,30.9,29.1,29.99,NW,307,3.0,7.0,93,0.00,,---,0.09,VWS V14.01,2013-03-08 02:02:00,
2013-03-07 21:05:00,31.0,29.2,29.98,NW,315,0.0,8.0,93,0.00,,---,0.09,VWS V14.01,2013-03-08 02:05:00,
2013-03-07 21:07:00,30.9,29.1,29.99,NE,39,1.0,6.0,93,0.00,,---,0.09,VWS V14.01,2013-03-08 02:07:00,
2013-03-07 21:10:00,31.0,29.2,29.98,North,360,2.0,6.0,93,0.00,,---,0.09,VWS V14.01,2013-03-08 02:10:00,
2013-03-07 21:12:00,30.9,29.1,29.99,NNW,348,2.0,6.0,93,0.00,,---,0.09,VWS V14.01,2013-03-08 02:12:00,
2013-03-07 21:15:00,31.0,29.2,29.98,NNW,338,3.0,6.0,93,0.00,,---,0.09,VWS V14.01,2013-03-08 02:15:00,
2013-03-07 21:18:00,30.9,29.1,29.99,NNE,28,2.0,6.0,93,0.00,,---,0.09,VWS V14.01,2013-03-08 02:18:00,
2013-03-07 21:20:00,31.0,29.2,29.98,WNW,299,0.0,3.0,93,0.00,,---,0.09,VWS V14.01,2013-03-08 02:20:00,
2013-03-07 21:23:00,30.9,29.1,29.98,NNE,32,0.0,5.0,93,0.00,,---,0.09,VWS V14.01,2013-03-08 02:23:00,
2013-03-07 21:25:00,31.0,29.2,29.97,NNW,340,1.0,6.0,93,0.00,,---,0.09,VWS V14.01,2013-03-08 02:25:00,
2013-03-07 21:28:00,30.9,29.1,29.98,SSE,150,2.0,5.0,93,0.00,,---,0.09,VWS V14.01,2013-03-08 02:28:00,
2013-03-07 21:30:00,31.0,29.2,29.97,North,360,3.0,4.0,93,0.00,,---,0.09,VWS V14.01,2013-03-08 02:30:00,
2013-03-07 21:33:00,30.8,29.0,29.98,NNW,344,3.0,6.0,93,0.00,,---,0.09,VWS V14.01,2013-03-08 02:33:00,
2013-03-07 21:35:00,31.0,29.2,29.97,East,85,1.0,5.0,93,0.00,,---,0.09,VWS V14.01,2013-03-08 02:35:00,
2013-03-07 21:38:00,30.9,29.1,29.98,NW,320,0.0,3.0,93,0.00,,---,0.09,VWS V14.01,2013-03-08 02:38:00,
2013-03-07 21:40:00,31.0,29.2,29.97,NNE,26,1.0,6.0,93,0.00,,---,0.09,VWS V14.01,2013-03-08 02:40:00,
2013-03-07 21:43:00,30.9,29.1,29.98,NE,52,1.0,1.0,93,0.00,,---,0.09,VWS V14.01,2013-03-08 02:43:00,
2013-03-07 21:45:00,31.0,29.2,29.97,North,355,0.0,6.0,93,0.00,,---,0.09,VWS V14.01,2013-03-08 02:45:00,
2013-03-07 21:48:00,30.9,29.1,29.98,North,11,1.0,3.0,93,0.00,,---,0.09,VWS V14.01,2013-03-08 02:48:00,
2013-03-07 21:50:00,31.0,29.2,29.97,NE,56,2.0,3.0,93,0.00,,---,0.09,VWS V14.01,2013-03-08 02:50:00,
2013-03-07 21:53:00,30.9,29.1,29.98,North,349,1.0,3.0,93,0.00,,---,0.09,VWS V14.01,2013-03-08 02:53:00,
2013-03-07 21:55:00,31.0,29.2,29.97,East,91,3.0,5.0,93,0.00,,---,0.09,VWS V14.01,2013-03-08 02:55:00,
2013-03-07 21:59:00,30.9,29.1,29.98,NNW,335,0.0,4.0,93,0.00,,---,0.09,VWS V14.01,2013-03-08 02:59:00,
2013-03-07 22:00:00,31.0,29.2,29.97,NNE,15,2.0,6.0,93,0.00,,---,0.09,VWS V14.01,2013-03-08 03:00:00,
2013-03-07 22:04:00,31.0,29.2,29.98,NW,317,0.0,1.0,93,0.00,,---,0.09,VWS V14.01,2013-03-08 03:04:00,
2013-03-07 22:05:00,31.0,29.2,29.97,North,360,0.0,10.0,93,0.00,,---,0.09,VWS V14.01,2013-03-08 03:05:00,
2013-03-07 22:09:00,31.0,29.2,29.98,North,10,0.0,3.0,93,0.00,,---,0.09,VWS V14.01,2013-03-08 03:09:00,
2013-03-07 22:10:00,30.9,29.1,29.97,WNW,302,1.0,7.0,93,0.00,,---,0.09,VWS V14.01,2013-03-08 03:10:00,
2013-03-07 22:14:00,31.0,29.2,29.97,NNW,339,0.0,3.0,93,0.00,,---,0.09,VWS V14.01,2013-03-08 03:14:00,
2013-03-07 22:15:00,30.9,29.4,29.97,NNE,28,1.0,9.0,94,0.00,,---,0.09,VWS V14.01,2013-03-08 03:15:00,
2013-03-07 22:19:00,31.0,29.2,29.98,SW,232,2.0,3.0,93,0.00,,---,0.09,VWS V14.01,2013-03-08 03:19:00,
2013-03-07 22:20:00,30.9,29.4,29.97,East,98,1.0,9.0,94,0.00,,---,0.09,VWS V14.01,2013-03-08 03:20:00,
2013-03-07 22:24:00,31.0,29.2,29.97,North,11,0.0,4.0,93,0.00,,---,0.09,VWS V14.01,2013-03-08 03:24:00,
2013-03-07 22:25:00,30.8,29.3,29.97,WNW,288,1.0,11.0,94,0.00,,---,0.09,VWS V14.01,2013-03-08 03:25:00,
2013-03-07 22:29:00,31.0,29.2,29.97,NNW,338,3.0,4.0,93,0.00,,---,0.09,VWS V14.01,2013-03-08 03:29:00,
2013-03-07 22:30:00,30.8,29.3,29.97,North,5,4.0,5.0,94,0.00,,---,0.09,VWS V14.01,2013-03-08 03:30:00,
2013-03-07 22:34:00,31.0,29.2,29.97,NNW,342,3.0,6.0,93,0.00,,---,0.09,VWS V14.01,2013-03-08 03:34:00,
2013-03-07 22:35:00,30.8,29.3,29.97,NW,312,1.0,6.0,94,0.00,,---,0.09,VWS V14.01,2013-03-08 03:35:00,
2013-03-07 22:39:00,31.0,29.2,29.97,NW,312,0.0,5.0,93,0.00,,---,0.09,VWS V14.01,2013-03-08 03:39:00,
2013-03-07 22:40:00,30.7,29.2,29.97,North,9,5.0,5.0,94,0.00,,---,0.09,VWS V14.01,2013-03-08 03:40:00,
2013-03-07 22:44:00,31.0,29.2,29.97,SE,127,3.0,3.0,93,0.00,,---,0.09,VWS V14.01,2013-03-08 03:44:00,
2013-03-07 22:45:00,30.7,29.2,29.96,WNW,298,5.0,5.0,94,0.00,,---,0.09,VWS V14.01,2013-03-08 03:45:00,
2013-03-07 22:49:00,31.0,29.2,29.97,ENE,60,0.0,5.0,93,0.00,,---,0.09,VWS V14.01,2013-03-08 03:49:00,
2013-03-07 22:50:00,30.7,29.2,29.96,NW,314,2.0,5.0,94,0.00,,---,0.09,VWS V14.01,2013-03-08 03:50:00,
2013-03-07 22:54:00,31.0,29.2,29.97,NNE,19,3.0,5.0,93,0.00,,---,0.09,VWS V14.01,2013-03-08 03:54:00,
2013-03-07 22:55:00,30.7,29.2,29.96,NNE,26,1.0,9.0,94,0.00,,---,0.09,VWS V14.01,2013-03-08 03:55:00,
2013-03-07 23:00:00,31.0,29.2,29.97,SSW,212,0.0,5.0,93,0.00,,---,0.09,VWS V14.01,2013-03-08 04:00:00,
2013-03-07 23:05:00,31.0,29.2,29.97,North,350,0.0,4.0,93,0.00,,---,0.09,VWS V14.01,2013-03-08 04:05:00,
2013-03-07 23:10:00,30.9,29.1,29.97,North,351,2.0,5.0,93,0.00,,---,0.09,VWS V14.01,2013-03-08 04:10:00,
2013-03-07 23:15:00,30.9,29.4,29.97,NE,37,2.0,5.0,94,0.00,,---,0.09,VWS V14.01,2013-03-08 04:15:00,
2013-03-07 23:20:00,30.8,29.3,29.97,NE,42,3.0,11.0,94,0.00,,---,0.09,VWS V14.01,2013-03-08 04:20:00,
2013-03-07 23:25:00,30.8,29.3,29.97,ENE,59,3.0,3.0,94,0.00,,---,0.09,VWS V14.01,2013-03-08 04:25:00,
2013-03-07 23:30:00,30.8,29.3,29.97,North,5,2.0,5.0,94,0.00,,---,0.09,VWS V14.01,2013-03-08 04:30:00,
2013-03-07 23:35:00,30.5,29.0,29.96,WNW,298,3.0,6.0,94,0.00,,---,0.00,VWS V14.01,2013-03-08 04:35:00,
2013-03-07 23:36:00,30.8,29.3,29.97,North,360,0.0,5.0,94,0.00,,---,0.09,VWS V14.01,2013-03-08 04:36:00,
2013-03-07 23:40:00,30.5,29.0,29.95,NNW,345,0.0,6.0,94,0.00,,---,0.00,VWS V14.01,2013-03-08 04:40:00,
2013-03-07 23:41:00,30.7,29.2,29.96,NW,325,1.0,5.0,94,0.00,,---,0.09,VWS V14.01,2013-03-08 04:41:00,
2013-03-07 23:45:00,30.5,29.0,29.95,SSE,158,1.0,6.0,94,0.00,,---,0.00,VWS V14.01,2013-03-08 04:45:00,
2013-03-07 23:46:00,30.7,29.2,29.96,NNW,334,0.0,5.0,94,0.00,,---,0.09,VWS V14.01,2013-03-08 04:46:00,
2013-03-07 23:50:00,30.5,29.0,29.95,North,355,3.0,12.0,94,0.00,,---,0.00,VWS V14.01,2013-03-08 04:50:00,
2013-03-07 23:51:00,30.7,29.2,29.96,NNW,348,0.0,9.0,94,0.00,,---,0.09,VWS V14.01,2013-03-08 04:51:00,
2013-03-07 23:55:00,30.5,29.0,29.95,NNE,26,5.0,5.0,94,0.00,,---,0.00,VWS V14.01,2013-03-08 04:55:00,
2013-03-07 23:56:00,30.7,29.2,29.96,NNE,22,1.0,10.0,94,0.00,,---,0.09,VWS V14.01,2013-03-08 04:56:00,